Pagina principală
METAR-TAF:

METAR-TAF

Aeroporturi :

Monte Scuro, Italia

Latitudine: 39-20N, longitudine: 016-24E, elevație: 1710 m

Observații meteo curente

Raportul a fost făcut în urmă cu 42 de minute, la 09:55 UTC
Vânt 2 kt de la Vest/Nord-vest
Temperatură 25°C
Umiditate 47%
Presiune 1026 hPa
Vizibilitate de 10 km sau mai mult
Nori împrăștiați la o înălțime de 400 picior

METAR: LIBQ 170955Z 30002KT 9999 SCT004 25/13 Q1026

Ora: 12:37 (10:37 UTC)


TAF: lipsă

Observații și prognoze meteo pentru peste 4.000 de aeroporturi (rapoarte METAR și TAF).

Stațiile disponibile sunt reprezentate pe hartă prin puncte galbene și roșii.

Țineți indicatorul mouse-ului pe punctul dorit pentru a vedea denumirea stației.

Apoi, faceți clic pentru a vedea observațiile și prognozele meteorologice.

Pentru a schimba harta: Pentru mărire, faceți clic pe butoanele verzi cu cruce neagră; pentru micșorare, pe butonul verde cu o liniuță; pentru hărți învecinate, pe săgețile verzi.


METAR-TAF: